sensor_id;sensor_type;location;lat;lon;timestamp;P1;durP1;ratioP1;P2;durP2;ratioP2
67191;SDS011;54120;53.504;49.426;2022-08-20T00:00:17;11.80;;;4.25;;
67191;SDS011;54120;53.504;49.426;2022-08-20T00:02:46;13.90;;;3.90;;
67191;SDS011;54120;53.504;49.426;2022-08-20T00:05:20;15.48;;;4.72;;
67191;SDS011;54120;53.504;49.426;2022-08-20T00:07:51;7.97;;;3.67;;
67191;SDS011;54120;53.504;49.426;2022-08-20T00:10:18;8.23;;;4.32;;
67191;SDS011;54120;53.504;49.426;2022-08-20T00:12:46;15.48;;;4.05;;
67191;SDS011;54120;53.504;49.426;2022-08-20T00:15:14;9.52;;;4.47;;
67191;SDS011;54120;53.504;49.426;2022-08-20T00:17:49;9.50;;;4.03;;
67191;SDS011;54120;53.504;49.426;2022-08-20T00:20:17;12.98;;;4.18;;
67191;SDS011;54120;53.504;49.426;2022-08-20T00:22:46;7.95;;;4.20;;
67191;SDS011;54120;53.504;49.426;2022-08-20T00:25:13;10.45;;;4.15;;
67191;SDS011;54120;53.504;49.426;2022-08-20T00:27:39;9.30;;;4.00;;
67191;SDS011;54120;53.504;49.426;2022-08-20T00:30:07;8.82;;;3.70;;
67191;SDS011;54120;53.504;49.426;2022-08-20T00:32:42;17.55;;;3.90;;
67191;SDS011;54120;53.504;49.426;2022-08-20T00:35:14;12.75;;;3.95;;
67191;SDS011;54120;53.504;49.426;2022-08-20T00:37:41;8.60;;;3.50;;
67191;SDS011;54120;53.504;49.426;2022-08-20T00:40:10;11.20;;;3.90;;
67191;SDS011;54120;53.504;49.426;2022-08-20T00:42:42;11.45;;;3.72;;
67191;SDS011;54120;53.504;49.426;2022-08-20T00:45:13;8.23;;;3.60;;
67191;SDS011;54120;53.504;49.426;2022-08-20T00:47:40;9.13;;;3.75;;
67191;SDS011;54120;53.504;49.426;2022-08-20T00:50:11;6.28;;;3.60;;
67191;SDS011;54120;53.504;49.426;2022-08-20T00:52:40;11.15;;;3.88;;
67191;SDS011;54120;53.504;49.426;2022-08-20T00:55:08;13.93;;;4.65;;
67191;SDS011;54120;53.504;49.426;2022-08-20T00:57:46;10.38;;;3.65;;
67191;SDS011;54120;53.504;49.426;2022-08-20T01:00:20;6.28;;;3.25;;
67191;SDS011;54120;53.504;49.426;2022-08-20T01:02:52;8.60;;;3.23;;
67191;SDS011;54120;53.504;49.426;2022-08-20T01:05:19;11.43;;;3.13;;
67191;SDS011;54120;53.504;49.426;2022-08-20T01:07:48;11.90;;;3.53;;
67191;SDS011;54120;53.504;49.426;2022-08-20T01:10:22;8.07;;;4.15;;
67191;SDS011;54120;53.504;49.426;2022-08-20T01:12:55;10.25;;;3.90;;
67191;SDS011;54120;53.504;49.426;2022-08-20T01:15:23;9.73;;;3.83;;
67191;SDS011;54120;53.504;49.426;2022-08-20T01:17:56;10.52;;;3.45;;
67191;SDS011;54120;53.504;49.426;2022-08-20T01:20:27;9.02;;;4.22;;
67191;SDS011;54120;53.504;49.426;2022-08-20T01:25:59;12.10;;;3.33;;
67191;SDS011;54120;53.504;49.426;2022-08-20T01:28:51;8.15;;;3.60;;
67191;SDS011;54120;53.504;49.426;2022-08-20T01:31:19;9.00;;;3.72;;
67191;SDS011;54120;53.504;49.426;2022-08-20T01:33:54;9.80;;;3.60;;
67191;SDS011;54120;53.504;49.426;2022-08-20T01:36:29;6.75;;;3.58;;
67191;SDS011;54120;53.504;49.426;2022-08-20T01:39:02;13.07;;;3.55;;
67191;SDS011;54120;53.504;49.426;2022-08-20T01:44:13;4.63;;;3.15;;
67191;SDS011;54120;53.504;49.426;2022-08-20T01:46:41;11.88;;;3.95;;
67191;SDS011;54120;53.504;49.426;2022-08-20T01:49:14;6.95;;;3.58;;
67191;SDS011;54120;53.504;49.426;2022-08-20T01:51:43;6.78;;;3.38;;
67191;SDS011;54120;53.504;49.426;2022-08-20T01:54:10;6.65;;;3.30;;
67191;SDS011;54120;53.504;49.426;2022-08-20T01:56:49;4.82;;;2.85;;
67191;SDS011;54120;53.504;49.426;2022-08-20T01:59:38;11.60;;;3.30;;
67191;SDS011;54120;53.504;49.426;2022-08-20T02:02:05;8.98;;;2.88;;
67191;SDS011;54120;53.504;49.426;2022-08-20T02:04:32;7.78;;;3.85;;
67191;SDS011;54120;53.504;49.426;2022-08-20T02:06:59;6.93;;;3.00;;
67191;SDS011;54120;53.504;49.426;2022-08-20T02:09:30;6.53;;;3.22;;
67191;SDS011;54120;53.504;49.426;2022-08-20T02:11:59;8.30;;;3.60;;
67191;SDS011;54120;53.504;49.426;2022-08-20T02:14:28;6.70;;;3.03;;
67191;SDS011;54120;53.504;49.426;2022-08-20T02:16:55;9.93;;;3.08;;
67191;SDS011;54120;53.504;49.426;2022-08-20T02:21:59;9.13;;;3.30;;
67191;SDS011;54120;53.504;49.426;2022-08-20T02:24:27;8.93;;;3.00;;
67191;SDS011;54120;53.504;49.426;2022-08-20T02:26:54;4.82;;;2.92;;
67191;SDS011;54120;53.504;49.426;2022-08-20T02:29:21;12.88;;;3.58;;
67191;SDS011;54120;53.504;49.426;2022-08-20T02:31:48;11.68;;;3.33;;
67191;SDS011;54120;53.504;49.426;2022-08-20T02:34:14;11.50;;;2.80;;
67191;SDS011;54120;53.504;49.426;2022-08-20T02:36:41;7.35;;;2.75;;
67191;SDS011;54120;53.504;49.426;2022-08-20T02:39:09;8.07;;;3.28;;
67191;SDS011;54120;53.504;49.426;2022-08-20T02:41:37;6.97;;;2.53;;
67191;SDS011;54120;53.504;49.426;2022-08-20T02:44:04;8.25;;;3.00;;
67191;SDS011;54120;53.504;49.426;2022-08-20T02:46:31;4.40;;;3.00;;
67191;SDS011;54120;53.504;49.426;2022-08-20T02:48:58;4.72;;;3.20;;
67191;SDS011;54120;53.504;49.426;2022-08-20T02:51:24;4.72;;;3.00;;
67191;SDS011;54120;53.504;49.426;2022-08-20T02:53:51;6.80;;;3.22;;
67191;SDS011;54120;53.504;49.426;2022-08-20T02:56:17;3.85;;;2.67;;
67191;SDS011;54120;53.504;49.426;2022-08-20T02:58:44;4.20;;;2.42;;
67191;SDS011;54120;53.504;49.426;2022-08-20T03:01:11;5.43;;;2.78;;
67191;SDS011;54120;53.504;49.426;2022-08-20T03:03:39;9.60;;;3.03;;
67191;SDS011;54120;53.504;49.426;2022-08-20T03:06:08;7.05;;;2.67;;
67191;SDS011;54120;53.504;49.426;2022-08-20T03:08:35;9.40;;;2.80;;
67191;SDS011;54120;53.504;49.426;2022-08-20T03:11:02;4.82;;;2.63;;
67191;SDS011;54120;53.504;49.426;2022-08-20T03:13:29;8.07;;;2.80;;
67191;SDS011;54120;53.504;49.426;2022-08-20T03:15:57;6.85;;;3.03;;
67191;SDS011;54120;53.504;49.426;2022-08-20T03:18:25;7.72;;;3.30;;
67191;SDS011;54120;53.504;49.426;2022-08-20T03:20:54;5.97;;;2.70;;
67191;SDS011;54120;53.504;49.426;2022-08-20T03:23:21;5.80;;;2.40;;
67191;SDS011;54120;53.504;49.426;2022-08-20T03:25:47;5.40;;;2.42;;
67191;SDS011;54120;53.504;49.426;2022-08-20T03:28:14;9.07;;;2.47;;
67191;SDS011;54120;53.504;49.426;2022-08-20T03:30:41;6.13;;;2.35;;
67191;SDS011;54120;53.504;49.426;2022-08-20T03:33:08;8.70;;;2.83;;
67191;SDS011;54120;53.504;49.426;2022-08-20T03:35:34;9.70;;;2.65;;
67191;SDS011;54120;53.504;49.426;2022-08-20T03:38:05;13.63;;;2.60;;
67191;SDS011;54120;53.504;49.426;2022-08-20T03:40:33;9.48;;;2.80;;
67191;SDS011;54120;53.504;49.426;2022-08-20T03:42:59;7.18;;;3.00;;
67191;SDS011;54120;53.504;49.426;2022-08-20T03:45:26;8.20;;;2.83;;
67191;SDS011;54120;53.504;49.426;2022-08-20T03:47:54;6.10;;;2.50;;
67191;SDS011;54120;53.504;49.426;2022-08-20T03:50:22;9.88;;;2.90;;
67191;SDS011;54120;53.504;49.426;2022-08-20T03:52:51;5.43;;;2.75;;
67191;SDS011;54120;53.504;49.426;2022-08-20T03:55:18;8.02;;;2.63;;
67191;SDS011;54120;53.504;49.426;2022-08-20T03:57:49;3.30;;;2.40;;
67191;SDS011;54120;53.504;49.426;2022-08-20T04:00:19;4.30;;;2.10;;
67191;SDS011;54120;53.504;49.426;2022-08-20T04:02:47;5.53;;;2.30;;
67191;SDS011;54120;53.504;49.426;2022-08-20T04:05:14;5.22;;;2.40;;
67191;SDS011;54120;53.504;49.426;2022-08-20T04:07:40;6.75;;;2.80;;
67191;SDS011;54120;53.504;49.426;2022-08-20T04:10:07;5.25;;;2.60;;
67191;SDS011;54120;53.504;49.426;2022-08-20T04:12:36;6.15;;;2.55;;
67191;SDS011;54120;53.504;49.426;2022-08-20T04:15:09;5.57;;;2.60;;
67191;SDS011;54120;53.504;49.426;2022-08-20T04:17:39;5.88;;;2.60;;
67191;SDS011;54120;53.504;49.426;2022-08-20T04:20:07;6.72;;;2.38;;
67191;SDS011;54120;53.504;49.426;2022-08-20T04:22:36;5.30;;;2.60;;
67191;SDS011;54120;53.504;49.426;2022-08-20T04:25:05;4.65;;;2.28;;
67191;SDS011;54120;53.504;49.426;2022-08-20T04:27:36;6.00;;;2.33;;
67191;SDS011;54120;53.504;49.426;2022-08-20T04:30:07;5.45;;;2.00;;
67191;SDS011;54120;53.504;49.426;2022-08-20T04:32:39;6.22;;;2.30;;
67191;SDS011;54120;53.504;49.426;2022-08-20T04:35:07;24.10;;;2.65;;
67191;SDS011;54120;53.504;49.426;2022-08-20T04:37:40;5.38;;;2.10;;
67191;SDS011;54120;53.504;49.426;2022-08-20T04:40:08;5.22;;;2.45;;
67191;SDS011;54120;53.504;49.426;2022-08-20T04:42:55;6.93;;;2.40;;
67191;SDS011;54120;53.504;49.426;2022-08-20T04:45:22;5.25;;;2.20;;
67191;SDS011;54120;53.504;49.426;2022-08-20T04:47:49;5.50;;;2.40;;
67191;SDS011;54120;53.504;49.426;2022-08-20T04:50:16;6.15;;;2.50;;
67191;SDS011;54120;53.504;49.426;2022-08-20T04:52:43;9.15;;;2.58;;
67191;SDS011;54120;53.504;49.426;2022-08-20T04:55:11;7.82;;;3.55;;
67191;SDS011;54120;53.504;49.426;2022-08-20T04:57:37;4.47;;;2.30;;
67191;SDS011;54120;53.504;49.426;2022-08-20T05:00:08;8.45;;;2.38;;
67191;SDS011;54120;53.504;49.426;2022-08-20T05:02:41;9.43;;;2.58;;
67191;SDS011;54120;53.504;49.426;2022-08-20T05:05:08;7.82;;;2.20;;
67191;SDS011;54120;53.504;49.426;2022-08-20T05:07:39;7.50;;;2.78;;
67191;SDS011;54120;53.504;49.426;2022-08-20T05:10:13;6.53;;;2.33;;
67191;SDS011;54120;53.504;49.426;2022-08-20T05:12:43;10.35;;;2.40;;
67191;SDS011;54120;53.504;49.426;2022-08-20T05:18:11;8.57;;;2.90;;
67191;SDS011;54120;53.504;49.426;2022-08-20T05:20:38;8.02;;;2.53;;
67191;SDS011;54120;53.504;49.426;2022-08-20T05:23:10;8.88;;;2.55;;
67191;SDS011;54120;53.504;49.426;2022-08-20T05:25:39;6.35;;;2.47;;
67191;SDS011;54120;53.504;49.426;2022-08-20T05:28:07;7.75;;;2.65;;
67191;SDS011;54120;53.504;49.426;2022-08-20T05:30:42;6.85;;;3.17;;
67191;SDS011;54120;53.504;49.426;2022-08-20T05:33:10;6.75;;;3.10;;
67191;SDS011;54120;53.504;49.426;2022-08-20T05:35:38;6.90;;;2.47;;
67191;SDS011;54120;53.504;49.426;2022-08-20T05:38:09;4.10;;;2.20;;
67191;SDS011;54120;53.504;49.426;2022-08-20T05:40:38;7.22;;;2.25;;
67191;SDS011;54120;53.504;49.426;2022-08-20T05:43:06;5.00;;;2.25;;
67191;SDS011;54120;53.504;49.426;2022-08-20T05:45:33;11.20;;;2.08;;
67191;SDS011;54120;53.504;49.426;2022-08-20T05:48:04;7.07;;;2.10;;
67191;SDS011;54120;53.504;49.426;2022-08-20T05:50:36;7.50;;;2.13;;
67191;SDS011;54120;53.504;49.426;2022-08-20T05:53:04;8.40;;;2.47;;
67191;SDS011;54120;53.504;49.426;2022-08-20T05:55:31;9.77;;;2.33;;
67191;SDS011;54120;53.504;49.426;2022-08-20T05:57:57;6.28;;;2.05;;
67191;SDS011;54120;53.504;49.426;2022-08-20T06:00:25;7.78;;;2.15;;
67191;SDS011;54120;53.504;49.426;2022-08-20T06:02:52;5.55;;;2.10;;
67191;SDS011;54120;53.504;49.426;2022-08-20T06:05:37;5.47;;;1.95;;
67191;SDS011;54120;53.504;49.426;2022-08-20T06:08:04;1.98;;;1.58;;
67191;SDS011;54120;53.504;49.426;2022-08-20T06:10:32;3.30;;;1.65;;
67191;SDS011;54120;53.504;49.426;2022-08-20T06:12:59;4.35;;;1.90;;
67191;SDS011;54120;53.504;49.426;2022-08-20T06:15:25;4.43;;;1.90;;
67191;SDS011;54120;53.504;49.426;2022-08-20T06:17:51;2.58;;;1.70;;
67191;SDS011;54120;53.504;49.426;2022-08-20T06:20:18;25.50;;;2.00;;
67191;SDS011;54120;53.504;49.426;2022-08-20T06:22:44;5.60;;;2.08;;
67191;SDS011;54120;53.504;49.426;2022-08-20T06:25:10;5.35;;;1.90;;
67191;SDS011;54120;53.504;49.426;2022-08-20T06:27:37;3.50;;;1.65;;
67191;SDS011;54120;53.504;49.426;2022-08-20T06:30:05;4.53;;;1.60;;
67191;SDS011;54120;53.504;49.426;2022-08-20T06:32:33;3.72;;;1.65;;
67191;SDS011;54120;53.504;49.426;2022-08-20T06:35:00;3.85;;;1.70;;
67191;SDS011;54120;53.504;49.426;2022-08-20T06:37:29;6.45;;;2.10;;
67191;SDS011;54120;53.504;49.426;2022-08-20T06:39:59;3.97;;;1.92;;
67191;SDS011;54120;53.504;49.426;2022-08-20T06:42:28;3.08;;;2.22;;
67191;SDS011;54120;53.504;49.426;2022-08-20T06:44:56;3.00;;;2.15;;
67191;SDS011;54120;53.504;49.426;2022-08-20T06:47:24;2.08;;;1.58;;
67191;SDS011;54120;53.504;49.426;2022-08-20T06:49:50;2.58;;;2.03;;
67191;SDS011;54120;53.504;49.426;2022-08-20T06:52:16;2.78;;;1.90;;
67191;SDS011;54120;53.504;49.426;2022-08-20T06:54:43;3.40;;;2.10;;
67191;SDS011;54120;53.504;49.426;2022-08-20T06:57:10;4.55;;;2.00;;
67191;SDS011;54120;53.504;49.426;2022-08-20T06:59:36;6.43;;;2.20;;
67191;SDS011;54120;53.504;49.426;2022-08-20T07:02:02;7.90;;;1.92;;
67191;SDS011;54120;53.504;49.426;2022-08-20T07:04:29;6.47;;;2.00;;
67191;SDS011;54120;53.504;49.426;2022-08-20T07:06:55;4.50;;;1.83;;
67191;SDS011;54120;53.504;49.426;2022-08-20T07:09:22;3.00;;;1.67;;
67191;SDS011;54120;53.504;49.426;2022-08-20T07:11:50;2.38;;;1.90;;
67191;SDS011;54120;53.504;49.426;2022-08-20T07:14:17;2.03;;;1.77;;
67191;SDS011;54120;53.504;49.426;2022-08-20T07:16:44;2.70;;;1.90;;
67191;SDS011;54120;53.504;49.426;2022-08-20T07:19:12;4.70;;;1.85;;
67191;SDS011;54120;53.504;49.426;2022-08-20T07:21:39;3.70;;;1.80;;
67191;SDS011;54120;53.504;49.426;2022-08-20T07:24:05;4.40;;;2.00;;
67191;SDS011;54120;53.504;49.426;2022-08-20T07:26:31;5.18;;;1.85;;
67191;SDS011;54120;53.504;49.426;2022-08-20T07:28:59;2.83;;;2.22;;
67191;SDS011;54120;53.504;49.426;2022-08-20T07:31:25;2.17;;;1.98;;
67191;SDS011;54120;53.504;49.426;2022-08-20T07:34:09;4.63;;;2.05;;
67191;SDS011;54120;53.504;49.426;2022-08-20T07:36:36;8.35;;;2.10;;
67191;SDS011;54120;53.504;49.426;2022-08-20T07:39:02;2.40;;;1.98;;
67191;SDS011;54120;53.504;49.426;2022-08-20T07:41:30;5.22;;;2.30;;
67191;SDS011;54120;53.504;49.426;2022-08-20T07:43:56;4.80;;;2.10;;
67191;SDS011;54120;53.504;49.426;2022-08-20T07:46:23;2.92;;;1.90;;
67191;SDS011;54120;53.504;49.426;2022-08-20T07:48:49;4.47;;;1.92;;
67191;SDS011;54120;53.504;49.426;2022-08-20T07:51:16;6.60;;;2.28;;
67191;SDS011;54120;53.504;49.426;2022-08-20T07:53:44;2.80;;;2.45;;
67191;SDS011;54120;53.504;49.426;2022-08-20T07:56:15;4.80;;;2.22;;
67191;SDS011;54120;53.504;49.426;2022-08-20T07:58:45;2.35;;;2.10;;
67191;SDS011;54120;53.504;49.426;2022-08-20T08:01:15;4.32;;;2.30;;
67191;SDS011;54120;53.504;49.426;2022-08-20T08:03:45;2.78;;;2.03;;
67191;SDS011;54120;53.504;49.426;2022-08-20T08:06:12;3.25;;;2.10;;
67191;SDS011;54120;53.504;49.426;2022-08-20T08:08:39;3.17;;;2.40;;
67191;SDS011;54120;53.504;49.426;2022-08-20T08:11:06;4.13;;;2.05;;
67191;SDS011;54120;53.504;49.426;2022-08-20T08:13:34;4.57;;;2.20;;
67191;SDS011;54120;53.504;49.426;2022-08-20T08:16:04;3.75;;;2.40;;
67191;SDS011;54120;53.504;49.426;2022-08-20T08:18:47;8.63;;;2.50;;
67191;SDS011;54120;53.504;49.426;2022-08-20T08:21:17;5.72;;;2.28;;
67191;SDS011;54120;53.504;49.426;2022-08-20T08:23:44;2.95;;;2.20;;
67191;SDS011;54120;53.504;49.426;2022-08-20T08:26:11;3.75;;;2.60;;
67191;SDS011;54120;53.504;49.426;2022-08-20T08:28:39;3.85;;;2.50;;
67191;SDS011;54120;53.504;49.426;2022-08-20T08:31:06;4.10;;;2.60;;
67191;SDS011;54120;53.504;49.426;2022-08-20T08:33:32;2.90;;;2.50;;
67191;SDS011;54120;53.504;49.426;2022-08-20T08:36:03;3.15;;;2.53;;
67191;SDS011;54120;53.504;49.426;2022-08-20T08:38:34;3.47;;;2.50;;
67191;SDS011;54120;53.504;49.426;2022-08-20T08:44:04;7.20;;;2.53;;
67191;SDS011;54120;53.504;49.426;2022-08-20T08:46:38;3.58;;;2.10;;
67191;SDS011;54120;53.504;49.426;2022-08-20T08:49:13;4.88;;;2.47;;
67191;SDS011;54120;53.504;49.426;2022-08-20T08:51:47;2.28;;;2.08;;
67191;SDS011;54120;53.504;49.426;2022-08-20T08:54:21;5.65;;;2.30;;
67191;SDS011;54120;53.504;49.426;2022-08-20T08:56:50;2.40;;;2.20;;
67191;SDS011;54120;53.504;49.426;2022-08-20T08:59:18;3.33;;;2.47;;
67191;SDS011;54120;53.504;49.426;2022-08-20T09:01:50;3.25;;;2.13;;
67191;SDS011;54120;53.504;49.426;2022-08-20T09:04:18;2.60;;;2.40;;
67191;SDS011;54120;53.504;49.426;2022-08-20T09:06:49;2.67;;;2.17;;
67191;SDS011;54120;53.504;49.426;2022-08-20T09:09:20;3.55;;;2.67;;
67191;SDS011;54120;53.504;49.426;2022-08-20T09:11:52;7.28;;;2.45;;
67191;SDS011;54120;53.504;49.426;2022-08-20T09:14:22;4.38;;;2.40;;
67191;SDS011;54120;53.504;49.426;2022-08-20T09:16:51;5.03;;;2.70;;
67191;SDS011;54120;53.504;49.426;2022-08-20T09:19:18;3.15;;;2.22;;
67191;SDS011;54120;53.504;49.426;2022-08-20T09:21:44;3.80;;;2.20;;
67191;SDS011;54120;53.504;49.426;2022-08-20T09:24:10;4.32;;;2.47;;
67191;SDS011;54120;53.504;49.426;2022-08-20T09:26:36;3.08;;;2.17;;
67191;SDS011;54120;53.504;49.426;2022-08-20T09:29:02;2.95;;;2.35;;
67191;SDS011;54120;53.504;49.426;2022-08-20T09:31:28;3.30;;;2.30;;
67191;SDS011;54120;53.504;49.426;2022-08-20T09:33:55;2.80;;;2.40;;
67191;SDS011;54120;53.504;49.426;2022-08-20T09:36:21;2.10;;;2.00;;
67191;SDS011;54120;53.504;49.426;2022-08-20T09:38:47;3.38;;;2.35;;
67191;SDS011;54120;53.504;49.426;2022-08-20T09:41:14;3.15;;;2.35;;
67191;SDS011;54120;53.504;49.426;2022-08-20T09:43:40;3.95;;;2.42;;
67191;SDS011;54120;53.504;49.426;2022-08-20T09:46:06;2.40;;;2.20;;
67191;SDS011;54120;53.504;49.426;2022-08-20T09:48:32;2.33;;;2.13;;
67191;SDS011;54120;53.504;49.426;2022-08-20T09:50:58;4.00;;;2.20;;
67191;SDS011;54120;53.504;49.426;2022-08-20T09:53:25;2.55;;;2.35;;
67191;SDS011;54120;53.504;49.426;2022-08-20T09:55:52;3.28;;;2.55;;
67191;SDS011;54120;53.504;49.426;2022-08-20T10:01:04;3.00;;;2.42;;
67191;SDS011;54120;53.504;49.426;2022-08-20T10:03:33;2.95;;;2.58;;
67191;SDS011;54120;53.504;49.426;2022-08-20T10:06:00;6.70;;;2.60;;
67191;SDS011;54120;53.504;49.426;2022-08-20T10:08:26;4.65;;;2.60;;
67191;SDS011;54120;53.504;49.426;2022-08-20T10:10:52;4.72;;;2.28;;
67191;SDS011;54120;53.504;49.426;2022-08-20T10:13:19;4.43;;;2.55;;
67191;SDS011;54120;53.504;49.426;2022-08-20T10:15:45;4.75;;;2.13;;
67191;SDS011;54120;53.504;49.426;2022-08-20T10:18:11;5.22;;;2.65;;
67191;SDS011;54120;53.504;49.426;2022-08-20T10:20:37;3.47;;;2.35;;
67191;SDS011;54120;53.504;49.426;2022-08-20T10:23:04;3.78;;;2.38;;
67191;SDS011;54120;53.504;49.426;2022-08-20T10:25:30;2.45;;;2.22;;
67191;SDS011;54120;53.504;49.426;2022-08-20T10:27:56;3.38;;;2.80;;
67191;SDS011;54120;53.504;49.426;2022-08-20T10:30:23;4.20;;;2.10;;
67191;SDS011;54120;53.504;49.426;2022-08-20T10:32:50;3.58;;;2.38;;
67191;SDS011;54120;53.504;49.426;2022-08-20T10:35:16;3.00;;;2.28;;
67191;SDS011;54120;53.504;49.426;2022-08-20T10:37:42;8.88;;;3.10;;
67191;SDS011;54120;53.504;49.426;2022-08-20T10:40:10;5.03;;;2.67;;
67191;SDS011;54120;53.504;49.426;2022-08-20T10:42:38;11.18;;;4.05;;
67191;SDS011;54120;53.504;49.426;2022-08-20T10:45:04;4.88;;;3.03;;
67191;SDS011;54120;53.504;49.426;2022-08-20T10:47:31;2.70;;;2.50;;
67191;SDS011;54120;53.504;49.426;2022-08-20T10:49:58;2.67;;;2.40;;
67191;SDS011;54120;53.504;49.426;2022-08-20T10:52:26;3.35;;;2.42;;
67191;SDS011;54120;53.504;49.426;2022-08-20T10:54:53;6.57;;;2.75;;
67191;SDS011;54120;53.504;49.426;2022-08-20T10:57:29;6.63;;;3.17;;
67191;SDS011;54120;53.504;49.426;2022-08-20T10:59:58;2.97;;;2.60;;
67191;SDS011;54120;53.504;49.426;2022-08-20T11:02:26;2.53;;;2.20;;
67191;SDS011;54120;53.504;49.426;2022-08-20T11:04:53;2.38;;;2.17;;
67191;SDS011;54120;53.504;49.426;2022-08-20T11:07:24;3.38;;;2.10;;
67191;SDS011;54120;53.504;49.426;2022-08-20T11:09:55;2.75;;;2.20;;
67191;SDS011;54120;53.504;49.426;2022-08-20T11:12:23;3.10;;;2.33;;
67191;SDS011;54120;53.504;49.426;2022-08-20T11:14:50;5.72;;;2.30;;
67191;SDS011;54120;53.504;49.426;2022-08-20T11:17:18;2.20;;;2.00;;
67191;SDS011;54120;53.504;49.426;2022-08-20T11:19:46;2.38;;;2.17;;
67191;SDS011;54120;53.504;49.426;2022-08-20T11:22:13;2.17;;;1.92;;
67191;SDS011;54120;53.504;49.426;2022-08-20T11:24:40;5.25;;;2.20;;
67191;SDS011;54120;53.504;49.426;2022-08-20T11:27:07;4.25;;;2.28;;
67191;SDS011;54120;53.504;49.426;2022-08-20T11:29:34;4.55;;;2.30;;
67191;SDS011;54120;53.504;49.426;2022-08-20T11:32:02;3.30;;;2.20;;
67191;SDS011;54120;53.504;49.426;2022-08-20T11:34:29;6.13;;;2.20;;
67191;SDS011;54120;53.504;49.426;2022-08-20T11:36:56;2.90;;;2.38;;
67191;SDS011;54120;53.504;49.426;2022-08-20T11:39:24;9.18;;;2.38;;
67191;SDS011;54120;53.504;49.426;2022-08-20T11:41:50;4.93;;;2.45;;
67191;SDS011;54120;53.504;49.426;2022-08-20T11:44:17;2.70;;;2.50;;
67191;SDS011;54120;53.504;49.426;2022-08-20T11:46:43;2.50;;;2.25;;
67191;SDS011;54120;53.504;49.426;2022-08-20T11:49:09;3.83;;;2.50;;
67191;SDS011;54120;53.504;49.426;2022-08-20T11:51:35;2.95;;;2.00;;
67191;SDS011;54120;53.504;49.426;2022-08-20T11:54:02;4.93;;;2.35;;
67191;SDS011;54120;53.504;49.426;2022-08-20T11:56:29;2.83;;;2.10;;
67191;SDS011;54120;53.504;49.426;2022-08-20T11:58:56;4.95;;;2.40;;
67191;SDS011;54120;53.504;49.426;2022-08-20T12:01:23;3.28;;;2.20;;
67191;SDS011;54120;53.504;49.426;2022-08-20T12:03:49;3.05;;;2.60;;
67191;SDS011;54120;53.504;49.426;2022-08-20T12:06:15;2.55;;;2.35;;
67191;SDS011;54120;53.504;49.426;2022-08-20T12:08:41;10.02;;;2.80;;
67191;SDS011;54120;53.504;49.426;2022-08-20T12:11:08;5.30;;;2.75;;
67191;SDS011;54120;53.504;49.426;2022-08-20T12:13:35;4.03;;;2.42;;
67191;SDS011;54120;53.504;49.426;2022-08-20T12:16:02;5.57;;;2.35;;
67191;SDS011;54120;53.504;49.426;2022-08-20T12:18:29;6.80;;;2.28;;
67191;SDS011;54120;53.504;49.426;2022-08-20T12:20:56;3.90;;;2.50;;
67191;SDS011;54120;53.504;49.426;2022-08-20T12:23:22;4.25;;;2.55;;
67191;SDS011;54120;53.504;49.426;2022-08-20T12:25:48;9.43;;;2.65;;
67191;SDS011;54120;53.504;49.426;2022-08-20T12:28:15;7.80;;;2.20;;
67191;SDS011;54120;53.504;49.426;2022-08-20T12:30:41;7.30;;;3.00;;
67191;SDS011;54120;53.504;49.426;2022-08-20T12:33:08;5.78;;;2.58;;
67191;SDS011;54120;53.504;49.426;2022-08-20T12:35:34;7.18;;;2.75;;
67191;SDS011;54120;53.504;49.426;2022-08-20T12:38:01;6.28;;;2.65;;
67191;SDS011;54120;53.504;49.426;2022-08-20T12:40:29;2.90;;;2.28;;
67191;SDS011;54120;53.504;49.426;2022-08-20T12:42:55;9.65;;;2.90;;
67191;SDS011;54120;53.504;49.426;2022-08-20T12:45:21;7.05;;;2.35;;
67191;SDS011;54120;53.504;49.426;2022-08-20T12:47:48;3.25;;;2.55;;
67191;SDS011;54120;53.504;49.426;2022-08-20T12:50:16;3.88;;;2.15;;
67191;SDS011;54120;53.504;49.426;2022-08-20T12:52:47;2.97;;;2.38;;
67191;SDS011;54120;53.504;49.426;2022-08-20T12:55:15;2.13;;;1.92;;
67191;SDS011;54120;53.504;49.426;2022-08-20T12:57:47;3.10;;;2.05;;
67191;SDS011;54120;53.504;49.426;2022-08-20T13:00:16;3.25;;;1.88;;
67191;SDS011;54120;53.504;49.426;2022-08-20T13:02:44;2.10;;;2.00;;
67191;SDS011;54120;53.504;49.426;2022-08-20T13:05:12;3.45;;;2.33;;
67191;SDS011;54120;53.504;49.426;2022-08-20T13:07:39;5.45;;;2.08;;
67191;SDS011;54120;53.504;49.426;2022-08-20T13:10:06;6.63;;;2.13;;
67191;SDS011;54120;53.504;49.426;2022-08-20T13:12:34;3.70;;;2.20;;
67191;SDS011;54120;53.504;49.426;2022-08-20T13:15:01;2.40;;;1.77;;
67191;SDS011;54120;53.504;49.426;2022-08-20T13:17:28;2.70;;;2.50;;
67191;SDS011;54120;53.504;49.426;2022-08-20T13:19:54;5.03;;;2.60;;
67191;SDS011;54120;53.504;49.426;2022-08-20T13:22:20;3.38;;;1.88;;
67191;SDS011;54120;53.504;49.426;2022-08-20T13:24:47;5.90;;;2.10;;
67191;SDS011;54120;53.504;49.426;2022-08-20T13:27:14;4.07;;;1.98;;
67191;SDS011;54120;53.504;49.426;2022-08-20T13:29:48;6.00;;;2.33;;
67191;SDS011;54120;53.504;49.426;2022-08-20T13:32:19;3.58;;;2.60;;
67191;SDS011;54120;53.504;49.426;2022-08-20T13:34:47;2.33;;;2.13;;
67191;SDS011;54120;53.504;49.426;2022-08-20T13:37:16;8.40;;;2.38;;
67191;SDS011;54120;53.504;49.426;2022-08-20T13:39:49;2.88;;;2.35;;
67191;SDS011;54120;53.504;49.426;2022-08-20T13:42:15;3.58;;;2.30;;
67191;SDS011;54120;53.504;49.426;2022-08-20T13:44:42;2.63;;;2.42;;
67191;SDS011;54120;53.504;49.426;2022-08-20T13:47:12;3.67;;;2.40;;
67191;SDS011;54120;53.504;49.426;2022-08-20T13:49:39;5.65;;;2.30;;
67191;SDS011;54120;53.504;49.426;2022-08-20T13:52:05;11.13;;;2.30;;
67191;SDS011;54120;53.504;49.426;2022-08-20T13:54:32;6.20;;;2.42;;
67191;SDS011;54120;53.504;49.426;2022-08-20T13:57:08;5.00;;;2.20;;
67191;SDS011;54120;53.504;49.426;2022-08-20T13:59:39;6.05;;;2.33;;
67191;SDS011;54120;53.504;49.426;2022-08-20T14:02:08;7.35;;;2.47;;
67191;SDS011;54120;53.504;49.426;2022-08-20T14:04:35;6.47;;;2.53;;
67191;SDS011;54120;53.504;49.426;2022-08-20T14:07:12;7.80;;;2.70;;
67191;SDS011;54120;53.504;49.426;2022-08-20T14:09:45;3.78;;;2.40;;
67191;SDS011;54120;53.504;49.426;2022-08-20T14:12:13;4.40;;;2.30;;
67191;SDS011;54120;53.504;49.426;2022-08-20T14:14:40;4.63;;;2.40;;
67191;SDS011;54120;53.504;49.426;2022-08-20T14:17:20;2.80;;;2.30;;
67191;SDS011;54120;53.504;49.426;2022-08-20T14:19:51;3.70;;;2.60;;
67191;SDS011;54120;53.504;49.426;2022-08-20T14:22:25;3.75;;;3.40;;
67191;SDS011;54120;53.504;49.426;2022-08-20T14:24:51;5.18;;;2.70;;
67191;SDS011;54120;53.504;49.426;2022-08-20T14:27:19;6.63;;;2.63;;
67191;SDS011;54120;53.504;49.426;2022-08-20T14:29:47;6.72;;;2.50;;
67191;SDS011;54120;53.504;49.426;2022-08-20T14:32:14;6.00;;;2.67;;
67191;SDS011;54120;53.504;49.426;2022-08-20T14:34:41;6.03;;;2.78;;
67191;SDS011;54120;53.504;49.426;2022-08-20T14:37:12;5.30;;;3.97;;
67191;SDS011;54120;53.504;49.426;2022-08-20T14:39:44;4.60;;;2.92;;
67191;SDS011;54120;53.504;49.426;2022-08-20T14:42:12;3.58;;;2.53;;
67191;SDS011;54120;53.504;49.426;2022-08-20T14:44:38;9.15;;;2.45;;
67191;SDS011;54120;53.504;49.426;2022-08-20T14:47:16;2.78;;;2.55;;
67191;SDS011;54120;53.504;49.426;2022-08-20T14:49:47;3.47;;;2.42;;
67191;SDS011;54120;53.504;49.426;2022-08-20T14:52:15;6.72;;;2.60;;
67191;SDS011;54120;53.504;49.426;2022-08-20T14:54:42;3.15;;;2.60;;
67191;SDS011;54120;53.504;49.426;2022-08-20T14:57:09;5.05;;;2.85;;